Time;durP1;ratioP1;P1;durP2;ratioP2;P2;SDS_P1;SDS_P2;PMS_P1;PMS_P2;Temp;Humidity;BMP_temperature;BMP_pressure;BME280_temperature;BME280_humidity;BME280_pressure;Samples;Min_cycle;Max_cycle;Signal;HPM_P1;HPM_P2
2022/08/30 00:03:03;;;;;;;26.80;17.35;;;;;;;11.58;100.00;98465.65;1726770;82;21034;-90
2022/08/30 00:05:29;;;;;;;24.82;14.85;;;;;;;11.50;100.00;98467.02;1737092;82;20978;-84
2022/08/30 00:07:56;;;;;;;23.32;14.98;;;;;;;11.45;100.00;98467.05;1704177;84;21045;-90
2022/08/30 00:10:23;;;;;;;28.27;15.75;;;;;;;11.47;100.00;98468.13;1697287;83;21486;-85
2022/08/30 00:12:49;;;;;;;21.55;12.70;;;;;;;11.46;100.00;98469.22;1735072;81;21013;-90
2022/08/30 00:15:16;;;;;;;24.10;14.35;;;;;;;11.46;100.00;98468.67;1773413;80;21022;-85
2022/08/30 00:17:42;;;;;;;18.35;13.75;;;;;;;11.47;100.00;98469.48;1764833;79;21457;-84
2022/08/30 00:20:11;;;;;;;26.35;16.05;;;;;;;11.52;100.00;98474.88;1761664;81;20897;-91
2022/08/30 00:22:37;;;;;;;26.55;15.50;;;;;;;11.50;100.00;98473.80;1725064;82;21019;-84
2022/08/30 00:25:04;;;;;;;21.27;13.35;;;;;;;11.50;100.00;98474.35;1765092;79;21403;-83
2022/08/30 00:27:30;;;;;;;28.00;14.25;;;;;;;11.44;100.00;98480.87;1781356;79;21040;-91
2022/08/30 00:29:56;;;;;;;21.45;14.15;;;;;;;11.45;100.00;98482.48;1807150;79;21794;-84
2022/08/30 00:32:22;;;;;;;21.57;13.28;;;;;;;11.46;100.00;98484.14;1758860;80;20992;-84
2022/08/30 00:34:51;;;;;;;16.82;12.15;;;;;;;11.46;100.00;98484.14;1757940;81;20902;-84
2022/08/30 00:37:17;;;;;;;18.48;12.55;;;;;;;11.49;100.00;98484.39;1760951;79;21179;-85
2022/08/30 00:39:43;;;;;;;20.10;11.95;;;;;;;11.51;100.00;98486.28;1766236;79;21006;-92
2022/08/30 00:42:09;;;;;;;21.90;12.25;;;;;;;11.55;100.00;98481.95;1778143;79;21064;-92
2022/08/30 00:44:35;;;;;;;19.23;12.65;;;;;;;11.56;100.00;98486.28;1779036;79;20998;-92
2022/08/30 00:47:01;;;;;;;16.80;12.30;;;;;;;11.58;100.00;98487.36;1770605;79;20993;-90
2022/08/30 00:49:28;;;;;;;18.05;11.25;;;;;;;11.55;100.00;98483.31;1777968;80;21989;-83
2022/08/30 00:51:55;;;;;;;16.37;10.80;;;;;;;11.57;100.00;98481.67;1736859;80;21007;-91
2022/08/30 00:54:20;;;;;;;19.50;11.65;;;;;;;11.52;100.00;98483.84;1744770;81;21000;-85
2022/08/30 00:56:47;;;;;;;21.62;12.65;;;;;;;11.48;100.00;98480.06;1757291;81;20995;-91
2022/08/30 00:59:13;;;;;;;23.27;12.18;;;;;;;11.43;100.00;98475.17;1750730;80;20953;-89
2022/08/30 01:01:39;;;;;;;20.88;11.65;;;;;;;11.36;100.00;98479.52;1770139;79;21274;-84
2022/08/30 01:04:05;;;;;;;17.00;11.95;;;;;;;11.33;100.00;98475.19;1764634;80;20958;-86
2022/08/30 01:06:33;;;;;;;15.93;10.53;;;;;;;11.32;100.00;98475.74;1769403;79;21040;-84
2022/08/30 01:09:00;;;;;;;17.45;11.78;;;;;;;11.31;100.00;98475.47;1760345;80;21413;-85
2022/08/30 01:11:27;;;;;;;14.38;10.35;;;;;;;11.29;100.00;98474.94;1761119;81;21061;-85
2022/08/30 01:13:53;;;;;;;16.00;11.65;;;;;;;11.37;100.00;98475.75;1769412;79;21021;-91
2022/08/30 01:16:19;;;;;;;17.15;11.35;;;;;;;11.39;100.00;98472.20;1773792;79;21052;-90
2022/08/30 01:18:45;;;;;;;16.82;11.43;;;;;;;11.42;100.00;98466.77;1789825;77;20969;-89
2022/08/30 01:21:31;;;;;;;15.65;11.10;;;;;;;11.42;100.00;98464.86;1725493;81;21421;-86
2022/08/30 01:23:58;;;;;;;15.35;10.25;;;;;;;11.42;100.00;98464.86;1760836;80;21084;-91
2022/08/30 01:26:24;;;;;;;16.32;10.80;;;;;;;11.38;100.00;98466.52;1760535;81;21176;-84
2022/08/30 01:28:53;;;;;;;16.07;10.70;;;;;;;11.39;100.00;98464.61;1741069;80;21036;-85
2022/08/30 01:31:19;;;;;;;;;;;;;;;11.42;100.00;98461.34;1728914;81;20995;-84
2022/08/30 01:33:45;;;;;;;16.27;9.33;;;;;;;11.42;100.00;98466.77;1760628;79;20625;-90
2022/08/30 01:36:13;;;;;;;13.58;8.13;;;;;;;11.42;100.00;98462.15;1760716;81;20981;-85
2022/08/30 01:38:50;;;;;;;13.63;9.00;;;;;;;11.46;100.00;98461.89;1760718;80;21105;-90
2022/08/30 01:41:20;;;;;;;12.15;8.73;;;;;;;11.49;100.00;98464.04;1755164;81;21013;-90
2022/08/30 01:43:46;;;;;;;12.98;7.90;;;;;;;11.51;100.00;98468.64;1787226;79;21048;-84
2022/08/30 01:46:13;;;;;;;13.93;9.60;;;;;;;11.52;100.00;98466.20;1776953;78;21058;-90
2022/08/30 01:48:40;;;;;;;14.78;10.08;;;;;;;11.47;100.00;98468.94;1768080;79;21017;-88
2022/08/30 01:51:05;;;;;;;16.82;10.85;;;;;;;11.40;100.00;98464.88;1768215;79;21485;-90
2022/08/30 01:53:32;;;;;;;18.35;10.90;;;;;;;11.34;100.00;98470.84;1750972;80;20869;-84
2022/08/30 01:55:57;;;;;;;13.30;9.20;;;;;;;11.24;100.00;98466.25;1760958;81;21476;-84
2022/08/30 01:58:23;;;;;;;12.10;8.68;;;;;;;11.25;100.00;98463.80;1765293;79;21531;-84
2022/08/30 02:00:49;;;;;;;15.18;9.05;;;;;;;11.26;100.00;98470.04;1770040;79;20954;-84
2022/08/30 02:03:15;;;;;;;15.93;10.15;;;;;;;11.22;100.00;98470.33;1761215;80;21752;-84
2022/08/30 02:05:42;;;;;;;11.90;8.40;;;;;;;11.21;100.00;98470.88;1757287;79;20878;-84
2022/08/30 02:08:08;;;;;;;22.37;11.03;;;;;;;11.24;100.00;98466.25;1761532;79;21009;-89
2022/08/30 02:10:34;;;;;;;22.77;10.08;;;;;;;11.19;100.00;98464.08;1768254;79;20875;-84
2022/08/30 02:13:00;;;;;;;23.57;9.45;;;;;;;11.16;100.00;98460.02;1774288;79;21049;-84
2022/08/30 02:15:26;;;;;;;16.30;9.35;;;;;;;11.14;100.00;98462.73;1763116;79;21145;-83
2022/08/30 02:17:52;;;;;;;18.80;9.38;;;;;;;11.09;100.00;98462.19;1761398;80;21413;-90
2022/08/30 02:20:18;;;;;;;18.82;10.05;;;;;;;11.10;100.00;98462.45;1761269;81;21005;-91
2022/08/30 02:22:45;;;;;;;15.32;8.23;;;;;;;11.09;100.00;98455.95;1724386;81;21020;-90
2022/08/30 02:25:11;;;;;;;11.57;9.23;;;;;;;11.06;100.00;98462.73;1725654;82;21074;-83
2022/08/30 02:27:37;;;;;;;11.63;8.70;;;;;;;11.04;100.00;98462.75;1714304;82;20937;-90
2022/08/30 02:30:06;;;;;;;12.47;7.95;;;;;;;11.07;100.00;98466.27;1702586;83;20878;-84
2022/08/30 02:32:32;;;;;;;11.83;8.05;;;;;;;11.08;100.00;98460.56;1725642;81;20984;-84
2022/08/30 02:34:58;;;;;;;11.63;8.85;;;;;;;11.12;100.00;98459.49;1724009;82;21513;-91
2022/08/30 02:37:24;;;;;;;11.73;9.35;;;;;;;11.08;100.00;98459.20;1684130;84;20894;-84
2022/08/30 02:39:49;;;;;;;11.43;8.33;;;;;;;11.07;100.00;98460.30;1698590;84;21053;-91
2022/08/30 02:42:15;;;;;;;11.18;8.35;;;;;;;11.08;100.00;98450.27;1739436;81;20850;-91
2022/08/30 02:44:41;;;;;;;11.30;8.65;;;;;;;11.07;100.00;98443.22;1760707;81;20850;-91
2022/08/30 02:47:07;;;;;;;9.90;8.18;;;;;;;10.98;100.00;98450.53;1744478;81;21011;-85
2022/08/30 02:49:33;;;;;;;10.75;7.87;;;;;;;10.96;100.00;98450.00;1760560;81;21568;-84
2022/08/30 02:51:59;;;;;;;12.45;7.87;;;;;;;10.94;100.00;98448.66;1760907;80;21088;-85
2022/08/30 02:54:26;;;;;;;12.03;7.78;;;;;;;10.94;100.00;98449.47;1761464;80;20996;-91
2022/08/30 02:56:52;;;;;;;11.63;7.35;;;;;;;10.89;100.00;98452.17;1767074;79;21064;-90
2022/08/30 02:59:19;;;;;;;16.10;8.53;;;;;;;10.88;100.00;98453.25;1765744;79;21441;-91
2022/08/30 03:01:44;;;;;;;10.08;7.30;;;;;;;10.86;100.00;98451.91;1768337;79;21006;-84
2022/08/30 03:04:10;;;;;;;9.35;7.80;;;;;;;10.84;100.00;98451.34;1761020;80;21427;-90
2022/08/30 03:06:37;;;;;;;8.90;7.53;;;;;;;10.85;100.00;98448.90;1761050;78;20929;-84
2022/08/30 03:09:03;;;;;;;11.45;7.75;;;;;;;10.86;100.00;98445.13;1760698;81;21015;-84
2022/08/30 03:11:30;;;;;;;11.28;8.08;;;;;;;10.85;100.00;98454.32;1760967;81;20853;-84
2022/08/30 03:13:56;;;;;;;12.07;7.35;;;;;;;10.80;100.00;98454.34;1770029;79;20994;-91
2022/08/30 03:16:22;;;;;;;11.78;7.80;;;;;;;10.82;100.00;98456.23;1777389;80;21159;-84
2022/08/30 03:18:48;;;;;;;10.20;7.62;;;;;;;10.87;100.00;98457.05;1742966;80;21028;-90
2022/08/30 03:21:14;;;;;;;11.10;7.12;;;;;;;10.87;100.00;98461.66;1759580;79;21655;-84
2022/08/30 03:23:41;;;;;;;12.55;8.05;;;;;;;10.85;100.00;98463.30;1760921;80;21033;-90
2022/08/30 03:26:09;;;;;;;9.93;7.45;;;;;;;10.77;100.00;98463.83;1764918;79;21037;-91
2022/08/30 03:28:35;;;;;;;10.77;7.07;;;;;;;10.74;100.00;98469.23;1761884;80;21136;-90
2022/08/30 03:31:01;;;;;;;11.50;8.20;;;;;;;10.71;100.00;98467.06;1748617;79;21645;-91
2022/08/30 03:33:27;;;;;;;11.43;8.53;;;;;;;10.68;100.00;98464.91;1779335;79;20973;-91
2022/08/30 03:35:53;;;;;;;11.22;9.23;;;;;;;10.67;100.00;98467.86;1773702;80;21002;-91
2022/08/30 03:38:19;;;;;;;14.28;8.38;;;;;;;10.71;100.00;98472.48;1775277;79;20859;-85
2022/08/30 03:40:45;;;;;;;17.48;9.93;;;;;;;10.74;100.00;98470.58;1777546;80;21339;-91
2022/08/30 03:43:10;;;;;;;15.83;9.03;;;;;;;10.75;100.00;98471.39;1771969;79;21351;-84
2022/08/30 03:45:38;;;;;;;13.72;9.08;;;;;;;10.74;100.00;98476.55;1772313;81;21005;-84
2022/08/30 03:48:04;;;;;;;10.95;7.67;;;;;;;10.72;100.00;98474.66;1766095;79;21112;-90
2022/08/30 03:50:30;;;;;;;12.75;8.35;;;;;;;10.70;100.00;98479.54;1756157;81;20989;-85
2022/08/30 03:52:56;;;;;;;11.83;7.92;;;;;;;10.70;100.00;98479.00;1760022;80;22002;-91
2022/08/30 03:55:22;;;;;;;9.98;7.22;;;;;;;10.69;100.00;98477.91;1756388;80;21016;-91
2022/08/30 03:57:48;;;;;;;10.58;7.85;;;;;;;10.71;100.00;98484.69;1760651;79;21021;-84
2022/08/30 04:00:15;;;;;;;10.95;8.40;;;;;;;10.71;100.00;98481.16;1778577;80;20933;-84
2022/08/30 04:02:41;;;;;;;8.25;7.33;;;;;;;10.69;100.00;98488.22;1733690;81;21023;-91
2022/08/30 04:05:09;;;;;;;8.53;6.60;;;;;;;10.70;100.00;98487.67;1746621;81;21036;-90
2022/08/30 04:07:35;;;;;;;8.03;6.62;;;;;;;10.68;100.00;98493.37;1759386;80;20998;-84
2022/08/30 04:10:01;;;;;;;7.83;6.15;;;;;;;10.68;100.00;98489.81;1760835;80;22301;-90
2022/08/30 04:12:27;;;;;;;10.58;7.03;;;;;;;10.69;100.00;98489.57;1739127;81;20987;-90
2022/08/30 04:14:53;;;;;;;10.15;7.55;;;;;;;10.70;100.00;98490.38;1754742;81;20866;-83
2022/08/30 04:17:22;;;;;;;10.18;6.65;;;;;;;10.74;100.00;98493.63;1760952;80;21284;-85
2022/08/30 04:19:48;;;;;;;9.08;6.33;;;;;;;10.76;100.00;98491.99;1737538;79;22532;-91
2022/08/30 04:22:14;;;;;;;11.45;6.95;;;;;;;10.76;100.00;98491.18;1757698;80;20851;-90
2022/08/30 04:24:40;;;;;;;13.65;5.97;;;;;;;10.72;100.00;98483.59;1761262;79;20883;-83
2022/08/30 04:27:07;;;;;;;10.78;6.75;;;;;;;10.72;100.00;98492.27;1788251;77;20882;-91
2022/08/30 04:29:34;;;;;;;10.23;6.80;;;;;;;10.71;100.00;98494.17;1758901;78;21384;-84
2022/08/30 04:32:00;;;;;;;10.10;7.10;;;;;;;10.73;100.00;98500.13;1762285;80;20845;-91
2022/08/30 04:34:26;;;;;;;13.20;7.78;;;;;;;10.74;100.00;98497.69;1760772;81;21012;-84
2022/08/30 04:36:52;;;;;;;16.25;7.83;;;;;;;10.78;100.00;98503.41;1743136;80;20893;-84
2022/08/30 04:39:18;;;;;;;11.30;7.17;;;;;;;10.81;100.00;98508.28;1759627;79;20994;-91
2022/08/30 04:41:44;;;;;;;9.20;7.47;;;;;;;10.80;100.00;98508.01;1760864;79;20993;-84
2022/08/30 04:44:10;;;;;;;9.88;7.17;;;;;;;10.79;100.00;98505.57;1760779;80;21049;-91
2022/08/30 04:46:36;;;;;;;13.90;8.05;;;;;;;10.84;100.00;98512.34;1760997;80;20901;-90
2022/08/30 04:49:03;;;;;;;9.53;8.48;;;;;;;10.84;100.00;98514.50;1760712;81;21445;-84
2022/08/30 04:51:29;;;;;;;11.38;6.55;;;;;;;10.84;100.00;98516.41;1772281;79;21496;-84
2022/08/30 04:53:55;;;;;;;10.32;7.67;;;;;;;10.88;100.00;98514.80;1779964;79;22000;-91
2022/08/30 04:56:22;;;;;;;12.00;7.58;;;;;;;10.83;100.00;98516.14;1769014;80;21020;-84
2022/08/30 04:58:51;;;;;;;10.32;8.05;;;;;;;10.91;100.00;98520.48;1770496;79;21055;-84
2022/08/30 05:01:26;;;;;;;10.70;7.12;;;;;;;10.92;100.00;98516.69;1773252;79;21007;-83
2022/08/30 05:03:52;;;;;;;10.50;6.40;;;;;;;10.95;100.00;98524.30;1754826;81;21611;-91
2022/08/30 05:06:18;;;;;;;8.35;6.55;;;;;;;10.95;100.00;98531.63;1759243;80;21205;-92
2022/08/30 05:08:44;;;;;;;13.15;7.33;;;;;;;10.91;100.00;98532.69;1762695;79;21044;-91
2022/08/30 05:11:10;;;;;;;11.00;6.83;;;;;;;10.94;100.00;98525.93;1763764;79;20894;-92
2022/08/30 05:13:36;;;;;;;12.58;7.47;;;;;;;11.05;100.00;98527.56;1770697;78;20941;-84
2022/08/30 05:16:04;;;;;;;10.50;9.33;;;;;;;11.12;100.00;98526.75;1783193;79;21102;-84
2022/08/30 05:18:30;;;;;;;9.23;6.47;;;;;;;11.15;100.00;98527.56;1751450;80;21080;-91
2022/08/30 05:21:14;;;;;;;12.88;6.78;;;;;;;11.19;100.00;98534.59;1758137;79;20938;-90
2022/08/30 05:23:41;;;;;;;12.75;7.03;;;;;;;11.23;100.00;98532.98;1759172;80;21115;-84
2022/08/30 05:26:17;;;;;;;13.15;8.35;;;;;;;11.24;100.00;98533.25;1768031;79;20986;-91
2022/08/30 05:28:43;;;;;;;15.30;9.03;;;;;;;11.20;100.00;98537.06;1745834;77;20990;-84
2022/08/30 05:31:28;;;;;;;14.98;7.85;;;;;;;11.19;100.00;98532.70;1730224;80;21099;-90
2022/08/30 05:33:55;;;;;;;15.72;7.40;;;;;;;11.22;100.00;98542.22;1719606;82;21048;-83
2022/08/30 05:36:23;;;;;;;10.53;7.87;;;;;;;11.22;100.00;98535.44;1714069;82;21059;-90
2022/08/30 05:38:49;;;;;;;11.45;6.75;;;;;;;11.36;100.00;98535.69;1734839;80;21028;-90
2022/08/30 05:41:16;;;;;;;8.48;6.97;;;;;;;11.54;100.00;98533.80;1717914;80;21059;-91
2022/08/30 05:43:43;;;;;;;11.10;8.25;;;;;;;11.65;100.00;98531.88;1750643;80;21480;-90
2022/08/30 05:46:12;;;;;;;12.07;5.78;;;;;;;11.80;100.00;98531.88;1755683;80;20998;-89
2022/08/30 05:48:38;;;;;;;7.37;6.15;;;;;;;12.01;100.00;98528.01;1745561;80;21508;-83
2022/08/30 05:51:08;;;;;;;11.28;5.92;;;;;;;12.17;100.00;98530.68;1742052;80;21157;-90
2022/08/30 05:53:34;;;;;;;10.70;7.40;;;;;;;12.29;100.00;98530.61;1726283;80;21029;-83
2022/08/30 05:56:02;;;;;;;9.13;6.60;;;;;;;12.47;100.00;98532.44;1755744;80;21065;-90
2022/08/30 05:58:28;;;;;;;7.70;5.45;;;;;;;12.77;100.00;98528.20;1735839;80;21032;-85
2022/08/30 06:00:54;;;;;;;8.13;4.40;;;;;;;13.02;100.00;98540.02;1725259;81;20986;-84
2022/08/30 06:03:20;;;;;;;8.25;4.83;;;;;;;13.36;100.00;98540.88;1731986;80;20931;-90
2022/08/30 06:05:47;;;;;;;8.80;5.25;;;;;;;13.61;100.00;98543.11;1744778;80;37754;-83
2022/08/30 06:08:13;;;;;;;7.50;4.55;;;;;;;13.67;100.00;98539.22;1759221;81;22045;-83
2022/08/30 06:10:39;;;;;;;4.47;3.85;;;;;;;13.57;100.00;98543.41;1758144;79;21010;-90
2022/08/30 06:13:05;;;;;;;7.25;3.75;;;;;;;13.54;100.00;98544.80;1756119;80;21784;-85
2022/08/30 06:15:31;;;;;;;3.87;3.20;;;;;;;13.51;100.00;98545.37;1756410;79;20950;-84
2022/08/30 06:17:57;;;;;;;6.33;4.72;;;;;;;13.49;100.00;98544.83;1753285;79;21013;-90
2022/08/30 06:20:23;;;;;;;6.65;3.58;;;;;;;13.75;100.00;98548.94;1756570;81;21279;-84
2022/08/30 06:22:49;;;;;;;4.92;4.37;;;;;;;13.88;100.00;98545.30;1730648;81;21030;-83
2022/08/30 06:25:16;;;;;;;5.12;4.15;;;;;;;13.96;100.00;98548.75;1753933;80;21154;-84
2022/08/30 06:27:42;;;;;;;5.25;4.67;;;;;;;14.13;100.00;98543.66;1759916;80;21103;-91
2022/08/30 06:30:09;;;;;;;7.15;5.50;;;;;;;14.39;100.00;98540.08;1747318;80;21049;-84
2022/08/30 06:32:37;;;;;;;5.20;4.50;;;;;;;14.53;100.00;98542.39;1756187;80;21349;-90
2022/08/30 06:35:05;;;;;;;8.90;4.80;;;;;;;14.97;100.00;98543.96;1734797;80;21080;-84
2022/08/30 06:37:32;;;;;;;8.80;4.45;;;;;;;15.29;100.00;98532.25;1752446;81;21076;-91
2022/08/30 06:39:59;;;;;;;7.85;4.75;;;;;;;15.58;100.00;98533.42;1732484;80;21040;-85
2022/08/30 06:42:30;;;;;;;8.00;5.55;;;;;;;15.66;100.00;98533.33;1765653;80;21467;-92
2022/08/30 06:44:54;;;;;;;;;;;;;;;15.59;100.00;98529.58;1708471;80;21168;-91
2022/08/30 06:47:20;;;;;;;7.22;4.67;;;;;;;15.65;100.00;98537.17;1750419;80;20445;-92
2022/08/30 06:49:46;;;;;;;9.10;5.03;;;;;;;15.75;100.00;98532.33;1748527;79;21490;-92
2022/08/30 06:52:12;;;;;;;6.80;4.22;;;;;;;15.87;100.00;98526.36;1739528;80;21064;-85
2022/08/30 06:54:38;;;;;;;6.72;4.42;;;;;;;16.12;98.00;98531.09;1744484;80;21718;-84
2022/08/30 06:57:04;;;;;;;5.83;4.40;;;;;;;16.59;95.11;98526.56;1728923;81;20943;-91
2022/08/30 06:59:31;;;;;;;5.08;4.12;;;;;;;17.04;93.46;98528.61;1734119;81;21056;-84
2022/08/30 07:01:57;;;;;;;6.00;4.22;;;;;;;17.54;92.94;98529.30;1737962;80;21436;-85
2022/08/30 07:04:24;;;;;;;5.72;3.92;;;;;;;18.19;94.26;98531.98;1734710;81;20961;-85
2022/08/30 07:06:51;;;;;;;12.77;4.17;;;;;;;18.67;90.10;98529.81;1723718;81;21064;-85
2022/08/30 07:09:18;;;;;;;9.83;4.42;;;;;;;19.29;89.38;98532.27;1740591;80;21515;-86
2022/08/30 07:11:44;;;;;;;5.28;4.53;;;;;;;19.91;91.21;98534.06;1745617;80;20993;-90
2022/08/30 07:14:10;;;;;;;7.50;4.47;;;;;;;20.61;89.47;98529.64;1740822;80;20980;-91
2022/08/30 07:16:36;;;;;;;8.83;6.00;;;;;;;20.73;84.19;98528.34;1714781;80;21061;-85
2022/08/30 07:19:03;;;;;;;11.85;4.25;;;;;;;21.35;85.17;98527.55;1749960;79;20909;-85
2022/08/30 07:21:33;;;;;;;8.18;3.90;;;;;;;21.98;83.12;98526.03;1767984;79;21483;-85
2022/08/30 07:23:59;;;;;;;7.78;3.77;;;;;;;22.13;80.06;98527.59;1760941;79;21683;-92
2022/08/30 07:26:32;;;;;;;5.85;4.35;;;;;;;22.27;80.81;98525.85;1743824;79;21012;-92
2022/08/30 07:28:58;;;;;;;4.45;4.03;;;;;;;23.06;74.25;98523.02;1717649;81;21076;-86
2022/08/30 07:31:25;;;;;;;6.95;3.67;;;;;;;23.30;69.79;98532.39;1736757;79;21399;-92
2022/08/30 07:33:51;;;;;;;8.05;4.65;;;;;;;23.22;68.81;98526.44;1732680;82;21108;-86
2022/08/30 07:36:17;;;;;;;10.18;4.28;;;;;;;23.44;68.64;98525.90;1707245;82;20953;-86
2022/08/30 07:38:45;;;;;;;8.40;3.42;;;;;;;23.36;70.29;98519.36;1729214;80;21029;-86
2022/08/30 07:41:24;;;;;;;5.12;3.50;;;;;;;23.97;66.32;98520.23;1750642;80;21597;-90
2022/08/30 07:43:50;;;;;;;7.15;3.65;;;;;;;24.06;67.74;98520.86;1721737;81;21020;-87
2022/08/30 07:46:16;;;;;;;5.95;3.87;;;;;;;24.20;68.65;98519.84;1745841;80;21081;-86
2022/08/30 07:48:42;;;;;;;8.68;4.00;;;;;;;25.07;65.15;98508.23;1728689;81;21022;-91
2022/08/30 07:51:11;;;;;;;9.43;5.03;;;;;;;25.22;61.86;98510.95;1740085;80;21060;-86
2022/08/30 07:53:37;;;;;;;8.13;4.35;;;;;;;25.09;63.56;98504.52;1730262;81;21117;-86
2022/08/30 07:56:03;;;;;;;9.95;4.15;;;;;;;26.01;64.07;98507.72;1743926;80;20989;-92
2022/08/30 07:58:29;;;;;;;9.68;4.55;;;;;;;26.64;61.49;98503.59;1735529;80;21908;-86
2022/08/30 08:00:58;;;;;;;14.63;5.65;;;;;;;26.90;59.05;98498.59;1756540;80;20941;-86
2022/08/30 08:03:22;;;;;;;10.72;5.55;;;;;;;27.80;58.88;98496.56;1739040;80;21012;-91
2022/08/30 08:05:48;;;;;;;9.50;3.75;;;;;;;28.12;57.81;98501.64;1731842;80;20864;-92
2022/08/30 08:08:14;;;;;;;7.62;3.17;;;;;;;28.73;53.93;98498.74;1745672;80;20969;-87
2022/08/30 08:10:41;;;;;;;8.33;3.37;;;;;;;28.63;49.77;98501.67;1742355;80;21191;-92
2022/08/30 08:13:07;;;;;;;7.62;3.58;;;;;;;28.81;50.63;98498.99;1705088;81;21076;-86
2022/08/30 08:15:33;;;;;;;6.55;2.95;;;;;;;29.24;51.16;98497.84;1767602;78;20982;-93
2022/08/30 08:18:00;;;;;;;5.92;2.65;;;;;;;29.32;50.19;98495.28;1763560;80;21500;-86
2022/08/30 08:20:26;;;;;;;5.28;3.12;;;;;;;30.12;50.20;98500.70;1732386;80;21118;-92
2022/08/30 08:22:52;;;;;;;8.15;3.15;;;;;;;30.96;44.60;98502.44;1748051;80;21172;-93
2022/08/30 08:25:18;;;;;;;4.72;2.70;;;;;;;30.98;44.58;98500.02;1752563;80;21114;-87
2022/08/30 08:27:47;;;;;;;8.45;4.80;;;;;;;30.48;40.60;98509.87;1754976;80;20994;-92
2022/08/30 08:30:14;;;;;;;9.25;4.12;;;;;;;31.24;41.46;98507.76;1746132;80;21001;-87
2022/08/30 08:32:40;;;;;;;9.00;3.75;;;;;;;31.69;40.53;98509.53;1747378;80;21460;-92
2022/08/30 08:35:06;;;;;;;6.42;2.90;;;;;;;31.72;36.64;98507.94;1753850;80;21090;-87
2022/08/30 08:37:32;;;;;;;7.95;2.87;;;;;;;31.58;37.61;98508.00;1750595;80;21323;-86
2022/08/30 08:39:58;;;;;;;4.30;2.50;;;;;;;32.29;37.68;98511.14;1741955;79;20957;-88
2022/08/30 08:42:42;;;;;;;5.80;2.80;;;;;;;32.53;36.48;98507.97;1746637;80;20956;-90
2022/08/30 08:45:15;;;;;;;4.65;2.98;;;;;;;33.23;35.56;98506.24;1737115;80;20997;-88
2022/08/30 08:47:58;;;;;;;5.30;2.70;;;;;;;32.74;32.99;98508.98;1732297;80;22010;-88
2022/08/30 08:50:24;;;;;;;4.58;2.15;;;;;;;32.65;33.31;98507.28;1719490;80;21061;-88
2022/08/30 08:55:47;;;;;;;4.08;2.08;;;;;;;32.52;32.55;98509.18;1738996;80;21048;-88
2022/08/30 08:58:24;;;;;;;9.15;2.52;;;;;;;30.61;34.24;98506.87;1744707;78;21040;-88
2022/08/30 09:00:51;;;;;;;5.20;2.55;;;;;;;31.69;34.65;98499.73;1750802;79;21115;-91
2022/08/30 09:03:20;;;;;;;8.13;4.05;;;;;;;29.61;34.94;98502.38;1753325;80;20998;-93
2022/08/30 09:05:46;;;;;;;5.25;2.67;;;;;;;29.59;37.01;98497.19;1742820;80;21040;-92
2022/08/30 09:08:14;;;;;;;5.70;2.15;;;;;;;31.44;34.92;98501.86;1740383;80;21019;-92
2022/08/30 09:10:44;;;;;;;4.65;2.87;;;;;;;31.64;32.61;98498.77;1741601;81;21501;-92
2022/08/30 09:13:09;;;;;;;6.05;2.47;;;;;;;31.37;33.92;98497.12;1771008;79;22009;-92
2022/08/30 09:15:35;;;;;;;5.65;2.87;;;;;;;30.85;32.22;98494.65;1769456;79;20984;-88
2022/08/30 09:18:04;;;;;;;4.92;2.52;;;;;;;31.93;33.29;98488.20;1737617;81;20982;-87
2022/08/30 09:20:44;;;;;;;5.40;2.55;;;;;;;32.93;32.69;98492.98;1738928;80;21036;-92
2022/08/30 09:23:21;;;;;;;7.20;3.22;;;;;;;33.52;32.02;98491.28;1753242;80;21100;-93
2022/08/30 09:25:55;;;;;;;5.50;3.02;;;;;;;34.81;31.12;98489.25;1735286;80;21137;-88
2022/08/30 09:28:26;;;;;;;4.70;2.35;;;;;;;35.96;30.42;98492.10;1716571;81;21098;-91
2022/08/30 09:31:07;;;;;;;4.28;2.25;;;;;;;35.90;28.63;98491.05;1738254;80;21116;-87
2022/08/30 09:33:33;;;;;;;5.42;2.45;;;;;;;33.79;28.79;98489.89;1740842;80;21077;-88
2022/08/30 09:36:19;;;;;;;6.70;2.37;;;;;;;31.48;33.01;98495.66;1734608;80;21071;-87
2022/08/30 09:38:46;;;;;;;3.75;2.55;;;;;;;29.94;34.88;98494.27;1745617;80;21746;-87
2022/08/30 09:41:41;;;;;;;4.28;2.40;;;;;;;28.69;36.95;98496.52;1677940;80;20982;-87
2022/08/30 09:44:21;;;;;;;15.25;2.70;;;;;;;26.75;39.76;98499.02;1763953;80;21645;-87
2022/08/30 09:46:59;;;;;;;5.10;2.37;;;;;;;26.26;41.01;98501.20;1732711;80;21154;-87
2022/08/30 09:49:39;;;;;;;5.33;3.08;;;;;;;25.11;43.17;98500.20;1733551;81;21469;-91
2022/08/30 09:52:32;;;;;;;8.15;2.70;;;;;;;24.74;44.55;98490.08;1735043;81;21878;-92
2022/08/30 09:55:16;;;;;;;7.80;2.70;;;;;;;24.23;45.92;98501.12;1748085;80;20982;-87
2022/08/30 09:58:02;;;;;;;5.70;2.62;;;;;;;23.96;46.60;98502.02;1760425;80;21097;-87
2022/08/30 10:00:31;;;;;;;7.58;2.98;;;;;;;24.11;46.82;98497.07;1730201;80;21056;-87
2022/08/30 10:03:17;;;;;;;9.05;3.55;;;;;;;23.71;48.63;98492.48;1728193;80;20968;-92
2022/08/30 10:06:07;;;;;;;7.17;3.15;;;;;;;23.54;49.16;98488.62;1726272;80;21089;-92
2022/08/30 10:09:03;;;;;;;8.40;4.42;;;;;;;23.43;49.75;98476.48;1736119;80;21032;-86
2022/08/30 10:12:06;;;;;;;5.47;3.75;;;;;;;23.40;50.67;98472.44;1736136;76;21060;-86
2022/08/30 10:14:49;;;;;;;5.90;3.40;;;;;;;23.32;52.41;98476.97;1731541;80;21045;-87
2022/08/30 10:17:54;;;;;;;6.70;3.45;;;;;;;22.82;53.45;98470.58;1739300;80;21092;-87
2022/08/30 10:20:34;;;;;;;6.08;3.27;;;;;;;22.76;53.42;98476.12;1682042;83;21085;-94
2022/08/30 10:23:19;;;;;;;8.43;3.33;;;;;;;22.53;54.16;98472.46;1676939;83;21043;-95
2022/08/30 10:25:49;;;;;;;6.60;3.35;;;;;;;22.52;54.43;98471.44;1721628;80;21029;-87
2022/08/30 10:28:36;;;;;;;4.28;3.00;;;;;;;22.48;56.10;98469.16;1733508;80;21027;-87
2022/08/30 10:31:11;;;;;;;8.13;4.12;;;;;;;22.31;55.00;98463.88;1732797;80;21108;-95
2022/08/30 10:33:43;;;;;;;6.55;3.33;;;;;;;22.24;56.07;98470.77;1737076;80;21307;-88
2022/08/30 10:36:12;;;;;;;6.20;3.30;;;;;;;22.34;55.12;98463.98;1733364;80;21013;-93
2022/08/30 10:38:40;;;;;;;5.92;3.02;;;;;;;22.39;55.81;98465.14;1738405;80;21009;-95
2022/08/30 10:41:18;;;;;;;6.40;3.37;;;;;;;22.43;56.82;98464.66;1744656;80;20973;-93
2022/08/30 10:44:06;;;;;;;4.30;3.05;;;;;;;22.44;54.77;98464.88;1722531;81;21064;-87
2022/08/30 10:47:07;;;;;;;6.72;3.30;;;;;;;22.45;54.12;98467.88;1739209;80;21165;-87
2022/08/30 10:49:43;;;;;;;7.55;3.02;;;;;;;22.46;54.66;98463.15;1730280;80;21469;-87
2022/08/30 10:52:18;;;;;;;6.20;3.75;;;;;;;22.43;54.63;98456.38;1740093;80;21032;-94
2022/08/30 10:54:55;;;;;;;6.35;3.17;;;;;;;22.50;54.29;98449.70;1734143;80;21084;-95
2022/08/30 10:57:22;;;;;;;4.28;2.87;;;;;;;22.31;57.46;98453.64;1721853;81;20985;-87
2022/08/30 10:59:59;;;;;;;7.50;3.50;;;;;;;22.36;57.27;98465.81;1735501;80;21101;-87
2022/08/30 11:02:39;;;;;;;8.80;4.28;;;;;;;22.29;58.04;98459.26;1768681;79;20938;-88
2022/08/30 11:05:30;;;;;;;6.72;3.80;;;;;;;22.52;56.58;98459.81;1770530;79;20974;-87
2022/08/30 11:08:24;;;;;;;8.15;3.87;;;;;;;22.53;56.74;98463.38;1768249;79;21071;-86
2022/08/30 11:11:04;;;;;;;5.90;2.98;;;;;;;22.45;56.57;98456.02;1771396;79;21024;-86
2022/08/30 11:13:31;;;;;;;8.25;3.75;;;;;;;22.39;55.77;98454.09;1735493;81;21022;-86
2022/08/30 11:16:14;;;;;;;4.45;2.90;;;;;;;22.30;54.21;98449.25;1742701;80;21002;-86
2022/08/30 11:18:48;;;;;;;9.45;2.77;;;;;;;22.28;54.35;98447.99;1741083;80;21036;-93
2022/08/30 11:21:33;;;;;;;7.22;3.22;;;;;;;22.39;54.74;98444.98;1739683;81;21095;-86
2022/08/30 11:24:07;;;;;;;6.08;3.65;;;;;;;22.47;54.65;98446.81;1736494;81;21475;-93
2022/08/30 11:26:56;;;;;;;7.10;3.40;;;;;;;22.59;54.95;98446.00;1745075;80;21102;-93
2022/08/30 11:29:37;;;;;;;7.33;3.27;;;;;;;22.78;54.99;98451.13;1745857;80;21036;-93
2022/08/30 11:32:20;;;;;;;7.28;2.77;;;;;;;22.80;55.65;98454.91;1764573;79;21111;-86
2022/08/30 11:34:56;;;;;;;5.33;3.25;;;;;;;22.83;55.55;98458.38;1719996;81;21655;-85
2022/08/30 11:37:41;;;;;;;5.35;2.92;;;;;;;22.98;55.21;98449.36;1745902;79;21029;-86
2022/08/30 11:40:25;;;;;;;5.20;2.87;;;;;;;22.95;53.72;98450.06;1731174;80;21109;-86